createdAt,value
2018-05-06T00:00:55.368Z,15.30
2018-05-06T00:03:24.977Z,15.20
2018-05-06T00:05:54.581Z,15.20
2018-05-06T00:08:23.451Z,15.10
2018-05-06T00:10:52.989Z,15.10
2018-05-06T00:13:21.804Z,15.10
2018-05-06T00:15:50.599Z,15.10
2018-05-06T00:18:19.417Z,15.10
2018-05-06T00:20:48.241Z,15.10
2018-05-06T00:23:17.807Z,15.00
2018-05-06T00:25:46.622Z,15.00
2018-05-06T00:28:15.513Z,15.00
2018-05-06T00:30:45.119Z,14.90
2018-05-06T00:33:14.702Z,14.90
2018-05-06T00:35:43.486Z,14.90
2018-05-06T00:38:12.332Z,14.80
2018-05-06T00:40:41.937Z,14.80
2018-05-06T00:43:11.474Z,14.80
2018-05-06T00:45:40.298Z,14.80
2018-05-06T00:48:10.001Z,14.80
2018-05-06T00:50:38.927Z,14.80
2018-05-06T00:53:07.730Z,14.70
2018-05-06T00:55:36.559Z,14.70
2018-05-06T00:58:05.347Z,14.70
2018-05-06T01:00:34.973Z,14.60
2018-05-06T01:03:03.747Z,14.60
2018-05-06T01:05:33.283Z,14.50
2018-05-06T01:08:02.228Z,14.50
2018-05-06T01:10:31.795Z,14.50
2018-05-06T01:13:00.604Z,14.40
2018-05-06T01:15:30.168Z,14.40
2018-05-06T01:17:59.803Z,14.30
2018-05-06T01:20:29.389Z,14.30
2018-05-06T01:22:58.164Z,14.30
2018-05-06T01:25:26.981Z,14.30
2018-05-06T01:27:56.549Z,14.30
2018-05-06T01:30:25.383Z,14.30
2018-05-06T01:32:54.967Z,14.20
2018-05-06T01:35:23.744Z,14.20
2018-05-06T01:37:52.555Z,14.20
2018-05-06T01:40:21.444Z,14.20
2018-05-06T01:42:51.053Z,14.10
2018-05-06T01:45:20.660Z,14.10
2018-05-06T01:47:49.503Z,14.00
2018-05-06T01:50:19.094Z,14.00
2018-05-06T01:52:47.930Z,14.00
2018-05-06T01:55:16.738Z,14.00
2018-05-06T01:57:45.672Z,14.00
2018-05-06T02:00:15.229Z,13.90
2018-05-06T02:02:44.055Z,13.90
2018-05-06T02:05:13.674Z,13.80
2018-05-06T02:07:42.580Z,13.80
2018-05-06T02:10:11.526Z,13.80
2018-05-06T02:12:40.364Z,13.70
2018-05-06T02:15:09.948Z,13.70
2018-05-06T02:17:38.768Z,13.70
2018-05-06T02:20:07.580Z,13.70
2018-05-06T02:22:37.190Z,13.70
2018-05-06T02:25:05.999Z,13.60
2018-05-06T02:27:34.768Z,13.60
2018-05-06T02:30:03.655Z,13.60
2018-05-06T02:32:33.225Z,13.50
2018-05-06T02:35:02.052Z,13.50
2018-05-06T02:37:30.882Z,13.50
2018-05-06T02:40:00.508Z,13.40
2018-05-06T02:42:30.075Z,13.40
2018-05-06T02:44:58.911Z,13.40
2018-05-06T02:47:27.839Z,13.40
2018-05-06T02:50:06.311Z,13.30
2018-05-06T02:52:35.130Z,13.30
2018-05-06T02:55:04.691Z,13.20
2018-05-06T02:57:33.500Z,13.20
2018-05-06T03:00:02.304Z,13.20
2018-05-06T03:02:31.089Z,13.20
2018-05-06T03:04:59.877Z,13.20
2018-05-06T03:07:28.708Z,13.10
2018-05-06T03:09:57.592Z,13.10
2018-05-06T03:12:27.175Z,13.10
2018-05-06T03:14:55.988Z,13.00
2018-05-06T03:17:24.820Z,13.00
2018-05-06T03:20:05.414Z,13.00
2018-05-06T03:22:35.094Z,12.90
2018-05-06T03:25:03.905Z,12.90
2018-05-06T03:27:32.716Z,12.90
2018-05-06T03:30:02.320Z,12.80
2018-05-06T03:32:31.897Z,12.80
2018-05-06T03:35:00.708Z,12.80
2018-05-06T03:37:29.515Z,12.80
2018-05-06T03:39:59.304Z,12.80
2018-05-06T03:42:28.866Z,12.70
2018-05-06T03:44:57.755Z,12.70
2018-05-06T03:47:26.592Z,12.70
2018-05-06T03:50:07.718Z,12.70
2018-05-06T03:52:36.532Z,12.70
2018-05-06T03:55:05.342Z,12.70
2018-05-06T03:57:52.577Z,12.70
2018-05-06T04:00:39.248Z,12.70
2018-05-06T04:03:08.811Z,12.70
2018-05-06T04:05:37.612Z,12.70
2018-05-06T04:08:07.198Z,12.70
2018-05-06T04:10:36.026Z,12.70
2018-05-06T04:13:05.593Z,12.70
2018-05-06T04:15:34.418Z,12.60
2018-05-06T04:18:03.237Z,12.60
2018-05-06T04:20:32.070Z,12.60
2018-05-06T04:23:01.660Z,12.60
2018-05-06T04:25:31.233Z,12.60
2018-05-06T04:28:00.191Z,12.60
2018-05-06T04:30:29.662Z,12.60
2018-05-06T04:32:58.458Z,12.60
2018-05-06T04:35:27.251Z,12.60
2018-05-06T04:37:56.132Z,12.60
2018-05-06T04:40:25.711Z,12.50
2018-05-06T04:42:54.630Z,12.50
2018-05-06T04:45:24.215Z,12.50
2018-05-06T04:47:53.015Z,12.50
2018-05-06T04:50:21.907Z,12.60
2018-05-06T04:52:50.825Z,12.60
2018-05-06T04:55:20.417Z,12.60
2018-05-06T04:57:49.291Z,12.60
2018-05-06T05:00:18.840Z,12.60
2018-05-06T05:02:47.668Z,12.60
2018-05-06T05:05:16.578Z,12.70
2018-05-06T05:07:45.365Z,12.60
2018-05-06T05:10:14.205Z,12.70
2018-05-06T05:12:43.749Z,12.70
2018-05-06T05:15:13.315Z,12.70
2018-05-06T05:17:42.139Z,12.70
2018-05-06T05:20:10.946Z,12.70
2018-05-06T05:22:40.535Z,12.70
2018-05-06T05:25:09.341Z,12.70
2018-05-06T05:27:38.151Z,12.80
2018-05-06T05:30:06.963Z,12.80
2018-05-06T05:32:35.887Z,12.80
2018-05-06T05:35:05.501Z,12.90
2018-05-06T05:37:35.113Z,12.90
2018-05-06T05:40:03.997Z,12.90
2018-05-06T05:42:33.575Z,13.00
2018-05-06T05:45:03.175Z,13.10
2018-05-06T05:47:32.016Z,13.00
2018-05-06T05:50:00.927Z,13.10
2018-05-06T05:52:30.535Z,13.20
2018-05-06T05:55:00.145Z,13.20
2018-05-06T05:57:29.685Z,13.20
2018-05-06T05:59:58.541Z,13.20
2018-05-06T06:02:28.107Z,13.30
2018-05-06T06:04:56.920Z,13.30
2018-05-06T06:07:25.749Z,13.30
2018-05-06T06:09:55.355Z,13.50
2018-05-06T06:12:24.965Z,13.50
2018-05-06T06:14:54.521Z,13.50
2018-05-06T06:17:23.391Z,13.50
2018-05-06T06:19:52.997Z,13.60
2018-05-06T06:22:22.548Z,13.70
2018-05-06T06:24:51.465Z,13.60
2018-05-06T06:27:20.387Z,13.70
2018-05-06T06:29:49.973Z,13.80
2018-05-06T06:32:18.773Z,13.80
2018-05-06T06:34:48.403Z,13.90
2018-05-06T06:37:17.961Z,13.90
2018-05-06T06:39:46.777Z,13.90
2018-05-06T06:42:15.565Z,14.00
2018-05-06T06:44:44.367Z,14.00
2018-05-06T06:47:13.285Z,14.00
2018-05-06T06:49:43.077Z,14.20
2018-05-06T06:52:11.857Z,14.20
2018-05-06T06:54:40.670Z,14.20
2018-05-06T06:57:10.258Z,14.40
2018-05-06T06:59:39.850Z,14.50
2018-05-06T07:02:08.670Z,14.40
2018-05-06T07:04:38.213Z,14.60
2018-05-06T07:07:07.858Z,14.60
2018-05-06T07:09:36.674Z,14.60
2018-05-06T07:12:06.258Z,14.70
2018-05-06T07:14:35.088Z,14.70
2018-05-06T07:17:03.946Z,14.80
2018-05-06T07:19:33.498Z,14.90
2018-05-06T07:22:02.305Z,14.90
2018-05-06T07:24:31.099Z,15.00
2018-05-06T07:26:59.900Z,15.00
2018-05-06T07:29:28.711Z,15.10
2018-05-06T07:31:57.503Z,15.10
2018-05-06T07:34:26.316Z,15.20
2018-05-06T07:36:55.152Z,15.30
2018-05-06T07:39:23.962Z,15.40
2018-05-06T07:41:52.745Z,15.50
2018-05-06T07:44:21.540Z,15.50
2018-05-06T07:46:50.377Z,15.60
2018-05-06T07:49:19.162Z,15.70
2018-05-06T07:51:48.006Z,15.70
2018-05-06T07:54:17.598Z,15.80
2018-05-06T07:56:46.398Z,15.80
2018-05-06T07:59:15.203Z,15.90
2018-05-06T08:01:44.790Z,16.00
2018-05-06T08:04:13.612Z,16.00
2018-05-06T08:06:43.326Z,16.10
2018-05-06T08:09:12.194Z,16.10
2018-05-06T08:11:41.605Z,16.20
2018-05-06T08:14:10.444Z,16.20
2018-05-06T08:16:39.266Z,16.30
2018-05-06T08:19:08.068Z,16.40
2018-05-06T08:21:36.943Z,16.50
2018-05-06T08:24:05.744Z,16.50
2018-05-06T08:26:35.010Z,16.60
2018-05-06T08:29:03.801Z,16.60
2018-05-06T08:31:33.422Z,16.70
2018-05-06T08:34:02.994Z,16.80
2018-05-06T08:36:33.320Z,16.80
2018-05-06T08:39:02.182Z,16.80
2018-05-06T08:41:32.014Z,16.90
2018-05-06T08:44:00.840Z,16.90
2018-05-06T08:46:29.856Z,17.00
2018-05-06T08:48:58.654Z,17.00
2018-05-06T08:51:27.537Z,17.10
2018-05-06T08:53:56.336Z,17.10
2018-05-06T08:56:25.512Z,17.10
2018-05-06T08:58:54.305Z,17.10
2018-05-06T09:01:23.156Z,17.20
2018-05-06T09:03:51.972Z,17.20
2018-05-06T09:06:22.316Z,17.30
2018-05-06T09:08:51.103Z,17.30
2018-05-06T09:11:19.896Z,17.40
2018-05-06T09:13:48.713Z,17.40
2018-05-06T09:16:18.286Z,17.50
2018-05-06T09:18:47.874Z,17.60
2018-05-06T09:21:16.666Z,17.60
2018-05-06T09:23:45.459Z,17.60
2018-05-06T09:26:15.024Z,17.70
2018-05-06T09:28:44.596Z,17.80
2018-05-06T09:31:13.392Z,17.80
2018-05-06T09:33:42.203Z,17.80
2018-05-06T09:36:11.906Z,17.90
2018-05-06T09:38:40.727Z,17.90
2018-05-06T09:41:09.554Z,17.90
2018-05-06T09:43:38.367Z,18.00
2018-05-06T09:46:07.934Z,18.00
2018-05-06T09:48:36.729Z,18.00
2018-05-06T09:51:05.551Z,18.00
2018-05-06T09:53:35.183Z,18.10
2018-05-06T09:56:04.011Z,18.00
2018-05-06T09:58:32.839Z,18.10
2018-05-06T10:01:01.645Z,18.10
2018-05-06T10:03:30.509Z,18.20
2018-05-06T10:06:00.089Z,18.30
2018-05-06T10:08:28.899Z,18.30
2018-05-06T10:10:57.745Z,18.30
2018-05-06T10:13:26.529Z,18.40
2018-05-06T10:15:56.906Z,18.50
2018-05-06T10:18:25.763Z,18.50
2018-05-06T10:20:55.319Z,18.60
2018-05-06T10:23:24.115Z,18.60
2018-05-06T10:25:52.915Z,18.60
2018-05-06T10:28:21.759Z,18.60
2018-05-06T10:30:50.577Z,18.70
2018-05-06T10:33:19.381Z,18.70
2018-05-06T10:35:48.195Z,18.80
2018-05-06T10:38:17.085Z,18.80
2018-05-06T10:40:46.690Z,18.90
2018-05-06T10:43:15.500Z,18.80
2018-05-06T10:45:44.288Z,18.90
2018-05-06T10:48:13.091Z,18.90
2018-05-06T10:50:41.942Z,18.90
2018-05-06T10:53:10.777Z,18.90
2018-05-06T10:55:39.583Z,19.00
2018-05-06T10:58:09.204Z,19.10
2018-05-06T11:00:37.998Z,19.10
2018-05-06T11:03:06.912Z,19.10
2018-05-06T11:05:36.523Z,19.20
2018-05-06T11:08:05.349Z,19.20
2018-05-06T11:10:34.297Z,19.30
2018-05-06T11:13:03.842Z,19.60
2018-05-06T11:15:32.656Z,19.50
2018-05-06T11:18:01.444Z,19.60
2018-05-06T11:20:31.164Z,19.70
2018-05-06T11:23:00.775Z,19.80
2018-05-06T11:25:30.342Z,19.80
2018-05-06T11:27:59.156Z,19.80
2018-05-06T11:30:28.748Z,19.90
2018-05-06T11:32:58.390Z,19.90
2018-05-06T11:35:27.988Z,19.90
2018-05-06T11:37:57.604Z,19.90
2018-05-06T11:40:27.170Z,19.90
2018-05-06T11:42:56.096Z,19.90
2018-05-06T11:45:25.650Z,19.90
2018-05-06T11:47:54.469Z,19.90
2018-05-06T11:50:23.270Z,19.90
2018-05-06T11:52:52.103Z,20.00
2018-05-06T11:55:20.920Z,20.00
2018-05-06T11:57:49.725Z,20.10
2018-05-06T12:00:18.533Z,20.10
2018-05-06T12:02:47.411Z,20.20
2018-05-06T12:05:16.197Z,20.20
2018-05-06T12:07:45.018Z,20.20
2018-05-06T12:10:13.852Z,20.20
2018-05-06T12:12:42.707Z,20.20
2018-05-06T12:15:12.266Z,20.20
2018-05-06T12:17:41.835Z,20.30
2018-05-06T12:20:10.669Z,20.30
2018-05-06T12:22:39.461Z,20.30
2018-05-06T12:25:08.266Z,20.40
2018-05-06T12:27:37.104Z,20.40
2018-05-06T12:30:05.919Z,20.50
2018-05-06T12:32:35.484Z,20.70
2018-05-06T12:35:04.325Z,20.70
2018-05-06T12:37:33.096Z,20.70
2018-05-06T12:40:01.952Z,20.70
2018-05-06T12:42:30.762Z,20.80
2018-05-06T12:44:59.624Z,20.80
2018-05-06T12:47:28.438Z,20.80
2018-05-06T12:49:58.026Z,20.90
2018-05-06T12:52:26.963Z,20.80
2018-05-06T12:54:56.541Z,21.00
2018-05-06T12:57:25.357Z,21.00
2018-05-06T12:59:54.954Z,21.00
2018-05-06T13:02:23.956Z,20.90
2018-05-06T13:04:52.738Z,21.00
2018-05-06T13:07:21.590Z,21.10
2018-05-06T13:09:50.430Z,21.10
2018-05-06T13:12:20.745Z,21.10
2018-05-06T13:14:49.567Z,21.10
2018-05-06T13:17:18.437Z,21.20
2018-05-06T13:19:48.003Z,21.30
2018-05-06T13:22:16.807Z,21.30
2018-05-06T13:24:45.719Z,21.40
2018-05-06T13:27:14.536Z,21.40
2018-05-06T13:29:43.385Z,21.50
2018-05-06T13:32:12.205Z,21.60
2018-05-06T13:34:40.998Z,21.60
2018-05-06T13:37:09.906Z,21.70
2018-05-06T13:39:39.453Z,21.70
2018-05-06T13:42:08.264Z,21.80
2018-05-06T13:44:37.051Z,21.80
2018-05-06T13:47:05.934Z,21.80
2018-05-06T13:49:34.728Z,21.80
2018-05-06T13:52:03.540Z,21.80
2018-05-06T13:54:33.099Z,21.80
2018-05-06T13:57:02.729Z,21.80
2018-05-06T13:59:31.545Z,21.80
2018-05-06T14:02:00.393Z,21.80
2018-05-06T14:04:29.983Z,21.90
2018-05-06T14:06:58.799Z,21.90
2018-05-06T14:09:27.591Z,22.00
2018-05-06T14:11:57.183Z,22.20
2018-05-06T14:14:26.112Z,22.20
2018-05-06T14:16:55.035Z,22.30
2018-05-06T14:19:23.855Z,22.30
2018-05-06T14:21:53.337Z,22.30
2018-05-06T14:24:22.124Z,22.30
2018-05-06T14:26:52.419Z,22.30
2018-05-06T14:29:21.226Z,22.30
2018-05-06T14:31:50.049Z,22.40
2018-05-06T14:34:19.668Z,22.70
2018-05-06T14:36:49.563Z,22.80
2018-05-06T14:39:18.498Z,22.80
2018-05-06T14:41:48.059Z,23.20
2018-05-06T14:44:16.899Z,23.20
2018-05-06T14:47:03.620Z,23.40
2018-05-06T14:49:32.459Z,23.70
2018-05-06T14:52:02.046Z,24.10
2018-05-06T14:54:30.843Z,24.00
2018-05-06T14:57:00.431Z,24.20
2018-05-06T14:59:30.756Z,24.30
2018-05-06T15:01:59.545Z,24.30
2018-05-06T15:04:28.366Z,25.50
2018-05-06T15:06:57.210Z,28.70
2018-05-06T15:09:26.011Z,33.00
2018-05-06T15:11:55.590Z,39.80
2018-05-06T15:14:36.289Z,39.60
2018-05-06T15:17:05.876Z,43.80
2018-05-06T15:19:34.699Z,43.70
2018-05-06T15:22:03.508Z,44.90
2018-05-06T15:24:32.322Z,45.80
2018-05-06T15:27:01.140Z,46.50
2018-05-06T15:29:29.929Z,47.30
2018-05-06T15:31:58.773Z,47.50
2018-05-06T15:34:27.644Z,47.00
2018-05-06T15:36:56.494Z,46.70
2018-05-06T15:39:26.066Z,47.10
2018-05-06T15:41:54.869Z,47.10
2018-05-06T15:44:23.761Z,47.50
2018-05-06T15:46:54.318Z,47.50
2018-05-06T15:49:23.940Z,42.70
2018-05-06T15:51:53.507Z,39.10
2018-05-06T15:54:22.292Z,39.00
2018-05-06T15:56:51.100Z,36.30
2018-05-06T15:59:19.929Z,34.20
2018-05-06T16:02:06.527Z,32.60
2018-05-06T16:04:35.410Z,31.30
2018-05-06T16:07:04.226Z,30.20
2018-05-06T16:09:33.027Z,30.70
2018-05-06T16:12:02.662Z,32.20
2018-05-06T16:14:31.453Z,32.10
2018-05-06T16:17:00.329Z,31.30
2018-05-06T16:19:29.878Z,29.10
2018-05-06T16:21:58.716Z,29.00
2018-05-06T16:24:28.281Z,27.50
2018-05-06T16:26:58.594Z,26.90
2018-05-06T16:29:27.586Z,26.90
2018-05-06T16:31:56.296Z,26.60
2018-05-06T16:34:25.106Z,26.30
2018-05-06T16:36:54.909Z,25.90
2018-05-06T16:39:24.442Z,25.30
2018-05-06T16:41:53.261Z,25.20
2018-05-06T16:44:22.077Z,25.10
2018-05-06T16:46:51.671Z,24.60
2018-05-06T16:49:20.531Z,24.50
2018-05-06T16:51:50.255Z,24.10
2018-05-06T16:54:19.060Z,24.10
2018-05-06T16:56:47.879Z,24.00
2018-05-06T16:59:17.464Z,23.60
2018-05-06T17:01:46.252Z,23.60
2018-05-06T17:04:15.268Z,23.40
2018-05-06T17:06:44.106Z,23.30
2018-05-06T17:09:12.886Z,23.10
2018-05-06T17:11:41.817Z,22.90
2018-05-06T17:14:11.438Z,22.60
2018-05-06T17:16:40.344Z,22.60
2018-05-06T17:19:10.486Z,22.30
2018-05-06T17:21:39.328Z,22.30
2018-05-06T17:24:08.892Z,22.00
2018-05-06T17:26:37.723Z,22.00
2018-05-06T17:29:06.534Z,21.90
2018-05-06T17:31:35.368Z,21.80
2018-05-06T17:34:04.946Z,21.60
2018-05-06T17:36:34.779Z,21.50
2018-05-06T17:39:03.591Z,21.50
2018-05-06T17:41:33.165Z,21.30
2018-05-06T17:44:02.000Z,21.30
2018-05-06T17:46:32.026Z,21.20
2018-05-06T17:49:00.843Z,21.10
2018-05-06T17:51:29.657Z,21.10
2018-05-06T17:53:59.266Z,20.90
2018-05-06T17:56:29.416Z,20.80
2018-05-06T17:58:58.268Z,20.80
2018-05-06T18:01:27.829Z,20.60
2018-05-06T18:03:56.649Z,20.60
2018-05-06T18:06:25.476Z,20.50
2018-05-06T18:08:54.297Z,20.40
2018-05-06T18:11:23.221Z,20.30
2018-05-06T18:13:52.141Z,20.10
2018-05-06T18:16:20.945Z,20.10
2018-05-06T18:18:49.768Z,20.00
2018-05-06T18:21:18.615Z,19.90
2018-05-06T18:23:47.473Z,19.90
2018-05-06T18:26:17.058Z,19.70
2018-05-06T18:28:45.887Z,19.70
2018-05-06T18:31:15.498Z,19.60
2018-05-06T18:33:44.385Z,19.50
2018-05-06T18:36:13.451Z,19.50
2018-05-06T18:38:42.239Z,19.40
2018-05-06T18:41:11.826Z,19.30
2018-05-06T18:43:40.655Z,19.30
2018-05-06T18:46:10.239Z,20.60
2018-05-06T18:48:39.087Z,19.20
2018-05-06T18:51:08.667Z,19.10
2018-05-06T18:53:38.276Z,19.00
2018-05-06T18:56:07.861Z,19.00
2018-05-06T18:58:36.808Z,18.90
2018-05-06T19:01:05.644Z,18.90
2018-05-06T19:03:34.443Z,18.90
2018-05-06T19:06:03.268Z,18.80
2018-05-06T19:08:32.252Z,18.80
2018-05-06T19:11:01.745Z,18.70
2018-05-06T19:13:30.614Z,18.60
2018-05-06T19:16:00.213Z,18.60
2018-05-06T19:18:29.036Z,18.60
2018-05-06T19:20:57.858Z,18.60
2018-05-06T19:23:26.666Z,18.50
2018-05-06T19:25:56.287Z,18.50
2018-05-06T19:28:25.107Z,18.40
2018-05-06T19:30:54.690Z,18.40
2018-05-06T19:33:23.495Z,18.40
2018-05-06T19:35:52.397Z,18.30
2018-05-06T19:38:21.222Z,18.30
2018-05-06T19:40:50.025Z,18.30
2018-05-06T19:43:19.648Z,18.10
2018-05-06T19:45:49.184Z,18.10
2018-05-06T19:48:17.977Z,18.10
2018-05-06T19:50:46.808Z,18.10
2018-05-06T19:53:16.386Z,18.00
2018-05-06T19:55:45.409Z,17.90
2018-05-06T19:58:14.243Z,17.90
2018-05-06T20:00:43.053Z,17.90
2018-05-06T20:03:11.856Z,17.80
2018-05-06T20:05:40.667Z,17.80
2018-05-06T20:08:09.493Z,17.80
2018-05-06T20:10:38.325Z,17.70
2018-05-06T20:13:07.143Z,17.70
2018-05-06T20:15:35.932Z,17.70
2018-05-06T20:18:04.735Z,17.60
2018-05-06T20:20:33.566Z,17.50
2018-05-06T20:23:02.557Z,17.40
2018-05-06T20:25:31.360Z,17.80
2018-05-06T20:28:00.194Z,17.30
2018-05-06T20:30:29.011Z,17.30
2018-05-06T20:32:58.592Z,17.20
2018-05-06T20:35:27.421Z,17.10
2018-05-06T20:37:56.992Z,17.00
2018-05-06T20:40:25.820Z,17.00
2018-05-06T20:42:55.417Z,16.90
2018-05-06T20:45:25.017Z,16.90
2018-05-06T20:47:53.840Z,16.90
2018-05-06T20:50:22.667Z,16.90
2018-05-06T20:52:51.487Z,16.80
2018-05-06T20:55:20.331Z,16.80
2018-05-06T20:57:49.867Z,16.70
2018-05-06T21:00:18.752Z,16.70
2018-05-06T21:02:47.570Z,16.70
2018-05-06T21:05:16.371Z,16.70
2018-05-06T21:07:45.159Z,16.70
2018-05-06T21:10:13.971Z,16.60
2018-05-06T21:12:42.763Z,16.60
2018-05-06T21:15:11.587Z,16.60
2018-05-06T21:17:40.465Z,16.60
2018-05-06T21:20:09.273Z,16.60
2018-05-06T21:22:38.090Z,16.60
2018-05-06T21:25:07.667Z,16.50
2018-05-06T21:27:37.275Z,16.50
2018-05-06T21:30:06.144Z,16.50
2018-05-06T21:32:34.932Z,16.40
2018-05-06T21:35:03.730Z,16.40
2018-05-06T21:37:32.553Z,16.40
2018-05-06T21:40:01.356Z,16.40
2018-05-06T21:42:30.259Z,16.30
2018-05-06T21:44:59.884Z,16.30
2018-05-06T21:47:28.695Z,16.20
2018-05-06T21:50:06.341Z,16.20
2018-05-06T21:52:35.148Z,16.20
2018-05-06T21:55:03.943Z,16.10
2018-05-06T21:57:32.770Z,16.10
2018-05-06T22:00:01.597Z,16.10
2018-05-06T22:02:30.398Z,16.10
2018-05-06T22:04:59.279Z,16.00
2018-05-06T22:07:28.881Z,16.00
2018-05-06T22:09:57.801Z,15.90
2018-05-06T22:12:27.373Z,15.90
2018-05-06T22:14:56.304Z,15.90
2018-05-06T22:17:25.876Z,15.90
2018-05-06T22:20:07.102Z,15.90
2018-05-06T22:22:36.013Z,15.90
2018-05-06T22:25:04.760Z,15.80
2018-05-06T22:27:34.496Z,15.80
2018-05-06T22:30:04.092Z,15.80
2018-05-06T22:32:33.656Z,15.70
2018-05-06T22:35:02.481Z,15.70
2018-05-06T22:37:31.361Z,15.70
2018-05-06T22:40:00.920Z,15.60
2018-05-06T22:42:29.746Z,15.60
2018-05-06T22:44:59.366Z,15.60
2018-05-06T22:47:28.183Z,15.50
2018-05-06T22:49:57.020Z,15.50
2018-05-06T22:52:25.839Z,15.60
2018-05-06T22:54:55.433Z,15.50
2018-05-06T22:57:25.044Z,15.40
2018-05-06T22:59:54.590Z,15.40
2018-05-06T23:02:23.393Z,15.30
2018-05-06T23:04:52.214Z,15.30
2018-05-06T23:07:21.107Z,15.30
2018-05-06T23:09:49.916Z,15.30
2018-05-06T23:12:19.490Z,15.20
2018-05-06T23:14:48.310Z,15.20
2018-05-06T23:17:17.158Z,15.10
2018-05-06T23:19:46.724Z,15.10
2018-05-06T23:22:15.582Z,15.10
2018-05-06T23:24:44.372Z,15.10
2018-05-06T23:27:13.291Z,15.00
2018-05-06T23:29:43.021Z,15.00
2018-05-06T23:32:11.816Z,15.00
2018-05-06T23:34:40.682Z,14.90
2018-05-06T23:37:09.505Z,14.90
2018-05-06T23:39:38.322Z,14.90
2018-05-06T23:42:07.129Z,14.80
2018-05-06T23:44:35.940Z,14.80
2018-05-06T23:47:05.516Z,14.70
2018-05-06T23:49:34.361Z,14.70
2018-05-06T23:52:03.189Z,14.70
2018-05-06T23:54:31.987Z,14.70
2018-05-06T23:57:00.837Z,14.70
2018-05-06T23:59:29.672Z,14.70
